sensor_id;sensor_type;location;lat;lon;timestamp;pressure;altitude;pressure_sealevel;temperature;humidity
48553;BME280;34335;51.566;6.994;2023-06-14T00:02:05;100764.94;;;19.64;43.32
48553;BME280;34335;51.566;6.994;2023-06-14T00:04:33;100767.78;;;19.57;43.87
48553;BME280;34335;51.566;6.994;2023-06-14T00:07:00;100770.22;;;19.64;43.66
48553;BME280;34335;51.566;6.994;2023-06-14T00:09:25;100774.56;;;19.65;43.71
48553;BME280;34335;51.566;6.994;2023-06-14T00:11:50;100776.28;;;19.42;44.24
48553;BME280;34335;51.566;6.994;2023-06-14T00:14:16;100778.25;;;19.37;45.27
48553;BME280;34335;51.566;6.994;2023-06-14T00:16:41;100780.81;;;19.38;43.92
48553;BME280;34335;51.566;6.994;2023-06-14T00:19:08;100789.91;;;19.29;45.65
48553;BME280;34335;51.566;6.994;2023-06-14T00:21:36;100784.44;;;19.36;44.30
48553;BME280;34335;51.566;6.994;2023-06-14T00:24:02;100786.81;;;19.18;44.49
48553;BME280;34335;51.566;6.994;2023-06-14T00:26:27;100788.06;;;19.08;44.90
48553;BME280;34335;51.566;6.994;2023-06-14T00:28:53;100789.66;;;19.12;44.86
48553;BME280;34335;51.566;6.994;2023-06-14T00:31:19;100791.78;;;19.00;45.10
48553;BME280;34335;51.566;6.994;2023-06-14T00:33:44;100789.66;;;19.12;44.66
48553;BME280;34335;51.566;6.994;2023-06-14T00:36:10;100799.50;;;19.07;44.28
48553;BME280;34335;51.566;6.994;2023-06-14T00:38:35;100798.69;;;19.05;44.68
48553;BME280;34335;51.566;6.994;2023-06-14T00:41:00;100796.59;;;18.88;45.92
48553;BME280;34335;51.566;6.994;2023-06-14T00:43:26;100794.56;;;18.97;44.95
48553;BME280;34335;51.566;6.994;2023-06-14T00:45:51;100801.22;;;18.81;46.08
48553;BME280;34335;51.566;6.994;2023-06-14T00:48:17;100794.03;;;18.86;44.47
48553;BME280;34335;51.566;6.994;2023-06-14T00:50:44;100804.50;;;18.88;44.76
48553;BME280;34335;51.566;6.994;2023-06-14T00:53:13;100804.47;;;18.89;44.56
48553;BME280;34335;51.566;6.994;2023-06-14T00:55:40;100806.47;;;18.81;44.53
48553;BME280;34335;51.566;6.994;2023-06-14T00:58:06;100812.06;;;18.72;44.99
48553;BME280;34335;51.566;6.994;2023-06-14T01:00:31;100817.53;;;18.65;45.08
48553;BME280;34335;51.566;6.994;2023-06-14T01:02:56;100804.06;;;18.75;44.64
48553;BME280;34335;51.566;6.994;2023-06-14T01:05:22;100811.28;;;18.69;44.76
48553;BME280;34335;51.566;6.994;2023-06-14T01:10:52;100814.13;;;18.35;46.46
48553;BME280;34335;51.566;6.994;2023-06-14T01:13:32;100815.00;;;18.35;45.49
48553;BME280;34335;51.566;6.994;2023-06-14T01:15:59;100815.44;;;18.48;45.54
48553;BME280;34335;51.566;6.994;2023-06-14T01:18:24;100815.00;;;18.35;45.61
48553;BME280;34335;51.566;6.994;2023-06-14T01:20:51;100815.56;;;18.45;45.57
48553;BME280;34335;51.566;6.994;2023-06-14T01:23:21;100817.59;;;18.37;45.62
48553;BME280;34335;51.566;6.994;2023-06-14T01:25:47;100810.78;;;18.30;46.35
48553;BME280;34335;51.566;6.994;2023-06-14T01:28:17;100814.44;;;18.26;45.43
48553;BME280;34335;51.566;6.994;2023-06-14T01:30:47;100810.75;;;18.31;45.46
48553;BME280;34335;51.566;6.994;2023-06-14T01:33:14;100816.00;;;18.31;45.05
48553;BME280;34335;51.566;6.994;2023-06-14T01:35:42;100818.13;;;18.20;45.63
48553;BME280;34335;51.566;6.994;2023-06-14T01:38:08;100817.66;;;18.05;45.56
48553;BME280;34335;51.566;6.994;2023-06-14T01:40:34;100813.97;;;18.13;44.63
48553;BME280;34335;51.566;6.994;2023-06-14T01:43:00;100805.91;;;18.17;44.58
48553;BME280;34335;51.566;6.994;2023-06-14T01:45:27;100818.75;;;17.98;46.87
48553;BME280;34335;51.566;6.994;2023-06-14T01:47:53;100817.66;;;18.05;44.98
48553;BME280;34335;51.566;6.994;2023-06-14T01:50:20;100811.63;;;18.02;44.83
48553;BME280;34335;51.566;6.994;2023-06-14T01:52:45;100813.94;;;17.83;45.43
48553;BME280;34335;51.566;6.994;2023-06-14T01:55:11;100812.06;;;17.86;46.83
48553;BME280;34335;51.566;6.994;2023-06-14T01:57:36;100814.84;;;17.82;46.47
48553;BME280;34335;51.566;6.994;2023-06-14T02:00:02;100812.00;;;17.58;48.14
48553;BME280;34335;51.566;6.994;2023-06-14T02:02:28;100811.66;;;17.70;46.42
48553;BME280;34335;51.566;6.994;2023-06-14T02:04:54;100799.34;;;17.72;45.94
48553;BME280;34335;51.566;6.994;2023-06-14T02:07:22;100805.31;;;17.78;46.64
48553;BME280;34335;51.566;6.994;2023-06-14T02:09:47;100806.53;;;17.66;47.89
48553;BME280;34335;51.566;6.994;2023-06-14T02:12:13;100811.50;;;17.45;48.90
48553;BME280;34335;51.566;6.994;2023-06-14T02:14:38;100805.34;;;17.46;47.67
48553;BME280;34335;51.566;6.994;2023-06-14T02:17:04;100815.16;;;17.39;48.25
48553;BME280;34335;51.566;6.994;2023-06-14T02:19:29;100807.00;;;17.49;47.44
48553;BME280;34335;51.566;6.994;2023-06-14T02:21:55;100817.84;;;17.36;47.32
48553;BME280;34335;51.566;6.994;2023-06-14T02:24:20;100814.44;;;17.34;48.01
48553;BME280;34335;51.566;6.994;2023-06-14T02:26:45;100821.56;;;17.29;47.04
48553;BME280;34335;51.566;6.994;2023-06-14T02:29:11;100820.78;;;17.25;49.00
48553;BME280;34335;51.566;6.994;2023-06-14T02:31:38;100822.06;;;17.10;49.52
48553;BME280;34335;51.566;6.994;2023-06-14T02:34:03;100824.38;;;17.23;48.44
48553;BME280;34335;51.566;6.994;2023-06-14T02:36:29;100820.97;;;17.19;48.20
48553;BME280;34335;51.566;6.994;2023-06-14T02:38:57;100821.47;;;17.32;47.37
48553;BME280;34335;51.566;6.994;2023-06-14T02:41:23;100827.75;;;17.26;47.73
48553;BME280;34335;51.566;6.994;2023-06-14T02:43:48;100821.97;;;17.13;48.07
48553;BME280;34335;51.566;6.994;2023-06-14T02:46:14;100825.81;;;17.00;51.02
48553;BME280;34335;51.566;6.994;2023-06-14T02:48:40;100826.84;;;16.94;50.42
48553;BME280;34335;51.566;6.994;2023-06-14T02:51:05;100824.03;;;17.02;48.05
48553;BME280;34335;51.566;6.994;2023-06-14T02:53:31;100826.78;;;16.97;47.96
48553;BME280;34335;51.566;6.994;2023-06-14T02:55:57;100829.66;;;16.87;50.60
48553;BME280;34335;51.566;6.994;2023-06-14T02:58:23;100831.25;;;16.94;48.98
48553;BME280;34335;51.566;6.994;2023-06-14T03:00:50;100831.50;;;16.81;50.09
48553;BME280;34335;51.566;6.994;2023-06-14T03:03:17;100839.66;;;16.71;49.29
48553;BME280;34335;51.566;6.994;2023-06-14T03:05:44;100837.22;;;16.63;49.14
48553;BME280;34335;51.566;6.994;2023-06-14T03:08:14;100850.00;;;16.77;48.24
48553;BME280;34335;51.566;6.994;2023-06-14T03:10:42;100847.66;;;16.66;48.42
48553;BME280;34335;51.566;6.994;2023-06-14T03:13:08;100850.38;;;16.61;48.82
48553;BME280;34335;51.566;6.994;2023-06-14T03:15:35;100854.63;;;16.29;51.55
48553;BME280;34335;51.566;6.994;2023-06-14T03:18:01;100860.53;;;16.39;52.70
48553;BME280;34335;51.566;6.994;2023-06-14T03:20:26;100855.91;;;16.49;49.38
48553;BME280;34335;51.566;6.994;2023-06-14T03:22:54;100850.50;;;16.57;49.04
48553;BME280;34335;51.566;6.994;2023-06-14T03:25:19;100860.31;;;16.48;52.10
48553;BME280;34335;51.566;6.994;2023-06-14T03:27:46;100862.31;;;16.37;50.37
48553;BME280;34335;51.566;6.994;2023-06-14T03:30:12;100873.78;;;16.33;52.32
48553;BME280;34335;51.566;6.994;2023-06-14T03:32:37;100867.78;;;16.28;52.09
48553;BME280;34335;51.566;6.994;2023-06-14T03:35:03;100869.41;;;16.32;50.32
48553;BME280;34335;51.566;6.994;2023-06-14T03:37:28;100875.66;;;16.28;50.61
48553;BME280;34335;51.566;6.994;2023-06-14T03:39:53;100878.38;;;16.22;50.69
48553;BME280;34335;51.566;6.994;2023-06-14T03:42:19;100876.69;;;16.20;53.32
48553;BME280;34335;51.566;6.994;2023-06-14T03:44:44;100882.03;;;16.14;51.94
48553;BME280;34335;51.566;6.994;2023-06-14T03:47:09;100882.03;;;16.14;51.48
48553;BME280;34335;51.566;6.994;2023-06-14T03:49:35;100884.56;;;16.19;53.91
48553;BME280;34335;51.566;6.994;2023-06-14T03:52:00;100884.56;;;16.19;54.20
48553;BME280;34335;51.566;6.994;2023-06-14T03:54:27;100887.28;;;16.14;50.72
48553;BME280;34335;51.566;6.994;2023-06-14T03:56:53;100892.44;;;16.19;51.06
48553;BME280;34335;51.566;6.994;2023-06-14T03:59:19;100898.72;;;16.12;55.52
48553;BME280;34335;51.566;6.994;2023-06-14T04:01:45;100897.16;;;16.03;54.99
48553;BME280;34335;51.566;6.994;2023-06-14T04:04:11;100898.03;;;16.03;55.90
48553;BME280;34335;51.566;6.994;2023-06-14T04:06:37;100905.75;;;16.10;53.86
48553;BME280;34335;51.566;6.994;2023-06-14T04:09:02;100912.06;;;16.01;56.24
48553;BME280;34335;51.566;6.994;2023-06-14T04:11:28;100914.66;;;16.02;53.15
48553;BME280;34335;51.566;6.994;2023-06-14T04:13:53;100915.31;;;16.12;53.30
48553;BME280;34335;51.566;6.994;2023-06-14T04:16:19;100911.06;;;16.07;53.07
48553;BME280;34335;51.566;6.994;2023-06-14T04:18:44;100918.13;;;16.04;55.41
48553;BME280;34335;51.566;6.994;2023-06-14T04:21:11;100919.94;;;16.01;54.92
48553;BME280;34335;51.566;6.994;2023-06-14T04:23:37;100926.84;;;16.05;56.33
48553;BME280;34335;51.566;6.994;2023-06-14T04:26:03;100925.09;;;16.06;56.72
48553;BME280;34335;51.566;6.994;2023-06-14T04:28:28;100924.97;;;16.12;53.70
48553;BME280;34335;51.566;6.994;2023-06-14T04:30:54;100926.66;;;16.14;53.63
48553;BME280;34335;51.566;6.994;2023-06-14T04:33:19;100934.56;;;16.13;56.00
48553;BME280;34335;51.566;6.994;2023-06-14T04:35:44;100931.84;;;16.16;56.19
48553;BME280;34335;51.566;6.994;2023-06-14T04:38:12;100933.56;;;16.18;59.94
48553;BME280;34335;51.566;6.994;2023-06-14T04:40:37;100935.91;;;16.31;56.61
48553;BME280;34335;51.566;6.994;2023-06-14T04:43:08;100930.66;;;16.31;56.87
48553;BME280;34335;51.566;6.994;2023-06-14T04:45:33;100933.25;;;16.34;56.64
48553;BME280;34335;51.566;6.994;2023-06-14T04:47:59;100939.13;;;16.45;57.78
48553;BME280;34335;51.566;6.994;2023-06-14T04:50:25;100942.44;;;16.54;56.02
48553;BME280;34335;51.566;6.994;2023-06-14T04:52:50;100944.19;;;16.55;58.27
48553;BME280;34335;51.566;6.994;2023-06-14T04:55:16;100937.03;;;16.60;58.54
48553;BME280;34335;51.566;6.994;2023-06-14T04:57:42;100948.28;;;16.68;57.55
48553;BME280;34335;51.566;6.994;2023-06-14T05:00:08;100943.69;;;16.76;57.54
48553;BME280;34335;51.566;6.994;2023-06-14T05:02:35;100944.50;;;16.80;57.94
48553;BME280;34335;51.566;6.994;2023-06-14T05:05:03;100950.38;;;16.90;58.68
48553;BME280;34335;51.566;6.994;2023-06-14T05:07:32;100947.66;;;16.96;57.56
48553;BME280;34335;51.566;6.994;2023-06-14T05:09:59;100958.06;;;16.99;58.46
48553;BME280;34335;51.566;6.994;2023-06-14T05:12:24;100951.69;;;17.09;57.59
48553;BME280;34335;51.566;6.994;2023-06-14T05:14:50;100951.78;;;17.06;59.39
48553;BME280;34335;51.566;6.994;2023-06-14T05:17:15;100952.50;;;17.13;60.12
48553;BME280;34335;51.566;6.994;2023-06-14T05:19:42;100960.34;;;17.15;58.84
48553;BME280;34335;51.566;6.994;2023-06-14T05:22:07;100949.50;;;17.27;58.93
48553;BME280;34335;51.566;6.994;2023-06-14T05:24:32;100960.97;;;17.24;59.12
48553;BME280;34335;51.566;6.994;2023-06-14T05:26:58;100957.88;;;17.43;58.93
48553;BME280;34335;51.566;6.994;2023-06-14T05:29:23;100961.34;;;17.45;58.92
48553;BME280;34335;51.566;6.994;2023-06-14T05:31:48;100960.13;;;17.58;57.19
48553;BME280;34335;51.566;6.994;2023-06-14T05:34:14;100967.97;;;17.60;57.63
48553;BME280;34335;51.566;6.994;2023-06-14T05:36:39;100963.53;;;17.62;57.03
48553;BME280;34335;51.566;6.994;2023-06-14T05:39:05;100965.84;;;17.74;57.45
48553;BME280;34335;51.566;6.994;2023-06-14T05:41:31;100965.94;;;17.71;57.85
48553;BME280;34335;51.566;6.994;2023-06-14T05:43:57;100967.31;;;17.85;56.69
48553;BME280;34335;51.566;6.994;2023-06-14T05:46:23;100970.41;;;18.02;56.87
48553;BME280;34335;51.566;6.994;2023-06-14T05:48:52;100977.28;;;18.06;58.16
48553;BME280;34335;51.566;6.994;2023-06-14T05:51:18;100978.56;;;18.23;56.43
48553;BME280;34335;51.566;6.994;2023-06-14T05:53:47;100979.38;;;18.27;56.61
48553;BME280;34335;51.566;6.994;2023-06-14T05:56:17;100985.47;;;18.27;56.99
48553;BME280;34335;51.566;6.994;2023-06-14T05:58:43;100988.75;;;18.35;56.52
48553;BME280;34335;51.566;6.994;2023-06-14T06:01:08;100987.03;;;18.34;56.55
48553;BME280;34335;51.566;6.994;2023-06-14T06:03:34;100996.25;;;18.49;55.82
48553;BME280;34335;51.566;6.994;2023-06-14T06:05:59;100988.13;;;18.57;56.42
48553;BME280;34335;51.566;6.994;2023-06-14T06:08:26;100993.59;;;18.79;55.42
48553;BME280;34335;51.566;6.994;2023-06-14T06:10:51;100989.09;;;18.83;55.55
48553;BME280;34335;51.566;6.994;2023-06-14T06:13:16;100991.78;;;18.81;55.54
48553;BME280;34335;51.566;6.994;2023-06-14T06:15:41;100995.75;;;18.96;55.26
48553;BME280;34335;51.566;6.994;2023-06-14T06:18:07;100988.38;;;19.08;54.82
48553;BME280;34335;51.566;6.994;2023-06-14T06:20:32;100996.88;;;19.16;55.59
48553;BME280;34335;51.566;6.994;2023-06-14T06:22:58;100986.59;;;19.35;54.96
48553;BME280;34335;51.566;6.994;2023-06-14T06:25:24;100985.06;;;19.28;54.41
48553;BME280;34335;51.566;6.994;2023-06-14T06:27:54;100986.94;;;19.51;54.71
48553;BME280;34335;51.566;6.994;2023-06-14T06:30:21;100993.09;;;19.52;53.78
48553;BME280;34335;51.566;6.994;2023-06-14T06:32:46;101001.28;;;19.69;53.96
48553;BME280;34335;51.566;6.994;2023-06-14T06:35:12;100999.34;;;19.74;53.44
48553;BME280;34335;51.566;6.994;2023-06-14T06:37:38;101009.28;;;19.93;53.11
48553;BME280;34335;51.566;6.994;2023-06-14T06:40:04;101017.16;;;19.95;52.64
48553;BME280;34335;51.566;6.994;2023-06-14T06:42:31;101010.59;;;20.06;53.97
48553;BME280;34335;51.566;6.994;2023-06-14T06:44:56;101015.63;;;20.13;53.05
48553;BME280;34335;51.566;6.994;2023-06-14T06:47:22;101018.69;;;20.26;52.83
48553;BME280;34335;51.566;6.994;2023-06-14T06:49:47;101017.44;;;20.36;52.07
48553;BME280;34335;51.566;6.994;2023-06-14T06:52:13;101019.56;;;20.50;53.00
48553;BME280;34335;51.566;6.994;2023-06-14T06:54:39;101029.03;;;20.55;52.50
48553;BME280;34335;51.566;6.994;2023-06-14T06:57:04;101033.19;;;20.86;51.66
48553;BME280;34335;51.566;6.994;2023-06-14T06:59:31;101028.84;;;20.60;51.53
48553;BME280;34335;51.566;6.994;2023-06-14T07:01:56;101032.56;;;21.02;51.33
48553;BME280;34335;51.566;6.994;2023-06-14T07:04:21;101025.31;;;21.07;50.84
48553;BME280;34335;51.566;6.994;2023-06-14T07:06:47;101022.97;;;21.22;51.46
48553;BME280;34335;51.566;6.994;2023-06-14T07:09:12;101031.94;;;21.40;49.96
48553;BME280;34335;51.566;6.994;2023-06-14T07:11:40;101031.16;;;21.38;50.23
48553;BME280;34335;51.566;6.994;2023-06-14T07:14:06;101029.13;;;21.44;50.59
48553;BME280;34335;51.566;6.994;2023-06-14T07:16:31;101035.31;;;21.43;48.56
48553;BME280;34335;51.566;6.994;2023-06-14T07:18:57;101042.94;;;21.51;48.98
48553;BME280;34335;51.566;6.994;2023-06-14T07:21:22;101031.81;;;21.65;49.24
48553;BME280;34335;51.566;6.994;2023-06-14T07:23:47;101038.97;;;21.63;49.06
48553;BME280;34335;51.566;6.994;2023-06-14T07:26:12;101029.38;;;21.60;49.01
48553;BME280;34335;51.566;6.994;2023-06-14T07:28:38;101036.06;;;21.90;48.39
48553;BME280;34335;51.566;6.994;2023-06-14T07:31:03;101044.97;;;21.67;48.22
48553;BME280;34335;51.566;6.994;2023-06-14T07:33:28;101037.66;;;21.94;48.84
48553;BME280;34335;51.566;6.994;2023-06-14T07:35:54;101046.22;;;22.20;48.47
48553;BME280;34335;51.566;6.994;2023-06-14T07:38:19;101047.75;;;22.25;48.02
48553;BME280;34335;51.566;6.994;2023-06-14T07:40:44;101043.69;;;22.37;47.73
48553;BME280;34335;51.566;6.994;2023-06-14T07:43:10;101040.59;;;22.48;47.43
48553;BME280;34335;51.566;6.994;2023-06-14T07:45:36;101043.09;;;22.51;46.82
48553;BME280;34335;51.566;6.994;2023-06-14T07:48:02;101047.13;;;22.39;46.41
48553;BME280;34335;51.566;6.994;2023-06-14T07:50:28;101041.41;;;22.50;45.65
48553;BME280;34335;51.566;6.994;2023-06-14T07:52:53;101042.53;;;22.83;45.84
48553;BME280;34335;51.566;6.994;2023-06-14T07:55:19;101041.41;;;22.88;46.14
48553;BME280;34335;51.566;6.994;2023-06-14T07:57:44;101040.38;;;22.72;45.83
48553;BME280;34335;51.566;6.994;2023-06-14T08:00:10;101043.03;;;22.72;46.79
48553;BME280;34335;51.566;6.994;2023-06-14T08:02:40;101046.97;;;23.01;46.21
48553;BME280;34335;51.566;6.994;2023-06-14T08:05:06;101041.41;;;23.25;45.87
48553;BME280;34335;51.566;6.994;2023-06-14T08:07:31;101040.81;;;23.20;45.96
48553;BME280;34335;51.566;6.994;2023-06-14T08:09:56;101038.94;;;23.22;46.15
48553;BME280;34335;51.566;6.994;2023-06-14T08:12:22;101048.00;;;23.36;45.54
48553;BME280;34335;51.566;6.994;2023-06-14T08:14:47;101051.63;;;23.70;44.95
48553;BME280;34335;51.566;6.994;2023-06-14T08:17:12;101052.47;;;23.53;44.13
48553;BME280;34335;51.566;6.994;2023-06-14T08:19:38;101054.44;;;23.49;43.91
48553;BME280;34335;51.566;6.994;2023-06-14T08:22:03;101059.59;;;23.70;44.12
48553;BME280;34335;51.566;6.994;2023-06-14T08:24:29;101055.03;;;23.54;43.46
48553;BME280;34335;51.566;6.994;2023-06-14T08:26:54;101045.38;;;23.71;44.07
48553;BME280;34335;51.566;6.994;2023-06-14T08:29:19;101050.16;;;23.64;44.68
48553;BME280;34335;51.566;6.994;2023-06-14T08:31:46;101047.47;;;23.81;44.03
48553;BME280;34335;51.566;6.994;2023-06-14T08:34:11;101051.69;;;23.68;43.37
48553;BME280;34335;51.566;6.994;2023-06-14T08:36:37;101060.53;;;23.86;43.45
48553;BME280;34335;51.566;6.994;2023-06-14T08:39:02;101041.84;;;23.88;43.28
48553;BME280;34335;51.566;6.994;2023-06-14T08:41:28;101056.75;;;23.90;43.72
48553;BME280;34335;51.566;6.994;2023-06-14T08:43:55;101056.25;;;24.01;44.33
48553;BME280;34335;51.566;6.994;2023-06-14T08:46:20;101053.44;;;24.04;43.56
48553;BME280;34335;51.566;6.994;2023-06-14T08:48:51;101064.84;;;24.40;43.52
48553;BME280;34335;51.566;6.994;2023-06-14T08:51:18;101057.81;;;24.39;41.69
48553;BME280;34335;51.566;6.994;2023-06-14T08:53:44;101048.59;;;24.46;42.21
48553;BME280;34335;51.566;6.994;2023-06-14T08:56:11;101061.34;;;24.73;41.44
48553;BME280;34335;51.566;6.994;2023-06-14T08:58:48;101062.22;;;24.22;40.00
48553;BME280;34335;51.566;6.994;2023-06-14T09:01:14;101054.63;;;23.99;40.72
48553;BME280;34335;51.566;6.994;2023-06-14T09:03:42;101058.16;;;24.33;39.85
48553;BME280;34335;51.566;6.994;2023-06-14T09:06:08;101049.94;;;24.37;40.14
48553;BME280;34335;51.566;6.994;2023-06-14T09:08:45;101051.00;;;24.67;40.03
48553;BME280;34335;51.566;6.994;2023-06-14T09:11:12;101060.47;;;24.39;39.49
48553;BME280;34335;51.566;6.994;2023-06-14T09:13:38;101048.59;;;24.46;39.46
48553;BME280;34335;51.566;6.994;2023-06-14T09:16:05;101052.50;;;24.39;39.23
48553;BME280;34335;51.566;6.994;2023-06-14T09:18:37;101063.38;;;24.68;38.33
48553;BME280;34335;51.566;6.994;2023-06-14T09:21:06;101070.28;;;24.54;38.01
48553;BME280;34335;51.566;6.994;2023-06-14T09:23:36;101055.84;;;25.08;36.74
48553;BME280;34335;51.566;6.994;2023-06-14T09:26:06;101063.06;;;24.74;37.84
48553;BME280;34335;51.566;6.994;2023-06-14T09:28:32;101065.53;;;24.77;36.58
48553;BME280;34335;51.566;6.994;2023-06-14T09:30:57;101059.09;;;25.13;37.40
48553;BME280;34335;51.566;6.994;2023-06-14T09:33:22;101060.31;;;24.92;38.23
48553;BME280;34335;51.566;6.994;2023-06-14T09:35:51;101071.72;;;25.10;36.80
48553;BME280;34335;51.566;6.994;2023-06-14T09:38:17;101066.81;;;24.86;36.14
48553;BME280;34335;51.566;6.994;2023-06-14T09:40:42;101071.88;;;25.23;36.12
48553;BME280;34335;51.566;6.994;2023-06-14T09:43:07;101073.25;;;24.98;37.27
48553;BME280;34335;51.566;6.994;2023-06-14T09:45:37;101064.72;;;25.39;36.94
48553;BME280;34335;51.566;6.994;2023-06-14T09:48:06;101062.94;;;25.40;36.01
48553;BME280;34335;51.566;6.994;2023-06-14T09:50:32;101079.72;;;24.94;36.99
48553;BME280;34335;51.566;6.994;2023-06-14T09:53:10;101070.88;;;25.41;37.54
48553;BME280;34335;51.566;6.994;2023-06-14T09:55:36;101059.81;;;25.78;36.70
48553;BME280;34335;51.566;6.994;2023-06-14T09:58:05;101075.31;;;25.41;36.51
48553;BME280;34335;51.566;6.994;2023-06-14T10:00:32;101077.22;;;25.69;36.81
48553;BME280;34335;51.566;6.994;2023-06-14T10:03:01;101067.19;;;25.89;36.46
48553;BME280;34335;51.566;6.994;2023-06-14T10:05:28;101070.09;;;26.00;35.04
48553;BME280;34335;51.566;6.994;2023-06-14T10:08:04;101067.97;;;25.91;35.42
48553;BME280;34335;51.566;6.994;2023-06-14T10:10:30;101068.72;;;25.93;35.53
48553;BME280;34335;51.566;6.994;2023-06-14T10:12:55;101081.53;;;26.17;35.26
48553;BME280;34335;51.566;6.994;2023-06-14T10:21:28;101071.59;;;26.04;35.42
48553;BME280;34335;51.566;6.994;2023-06-14T10:23:59;101076.59;;;25.33;34.90
48553;BME280;34335;51.566;6.994;2023-06-14T10:26:27;101084.34;;;25.69;36.05
48553;BME280;34335;51.566;6.994;2023-06-14T10:29:01;101081.94;;;26.25;35.24
48553;BME280;34335;51.566;6.994;2023-06-14T10:31:48;101067.66;;;25.81;35.69
48553;BME280;34335;51.566;6.994;2023-06-14T10:34:27;101068.69;;;26.38;35.62
48553;BME280;34335;51.566;6.994;2023-06-14T10:37:06;101072.50;;;26.63;35.16
48553;BME280;34335;51.566;6.994;2023-06-14T10:39:37;101071.81;;;26.73;34.76
48553;BME280;34335;51.566;6.994;2023-06-14T10:42:03;101060.13;;;26.62;34.53
48553;BME280;34335;51.566;6.994;2023-06-14T10:44:32;101070.13;;;26.87;34.56
48553;BME280;34335;51.566;6.994;2023-06-14T10:47:01;101070.50;;;26.52;34.92
48553;BME280;34335;51.566;6.994;2023-06-14T10:49:45;101068.59;;;26.83;34.36
48553;BME280;34335;51.566;6.994;2023-06-14T10:52:17;101061.09;;;27.17;34.88
48553;BME280;34335;51.566;6.994;2023-06-14T10:55:11;101059.84;;;26.52;35.36
48553;BME280;34335;51.566;6.994;2023-06-14T10:57:47;101057.16;;;26.81;34.75
48553;BME280;34335;51.566;6.994;2023-06-14T11:00:17;101059.88;;;26.94;34.30
48553;BME280;34335;51.566;6.994;2023-06-14T11:05:43;101055.00;;;27.15;34.55
48553;BME280;34335;51.566;6.994;2023-06-14T11:08:40;101054.63;;;27.06;34.70
48553;BME280;34335;51.566;6.994;2023-06-14T11:11:13;101061.56;;;27.36;34.75
48553;BME280;34335;51.566;6.994;2023-06-14T11:13:39;101043.25;;;27.17;33.68
48553;BME280;34335;51.566;6.994;2023-06-14T11:16:13;101050.44;;;27.30;34.91
48553;BME280;34335;51.566;6.994;2023-06-14T11:18:39;101057.09;;;27.64;34.83
48553;BME280;34335;51.566;6.994;2023-06-14T11:21:04;101057.50;;;27.31;34.84
48553;BME280;34335;51.566;6.994;2023-06-14T11:23:30;101061.34;;;27.40;34.54
48553;BME280;34335;51.566;6.994;2023-06-14T11:25:55;101056.63;;;27.30;34.76
48553;BME280;34335;51.566;6.994;2023-06-14T11:28:20;101059.44;;;27.42;34.14
48553;BME280;34335;51.566;6.994;2023-06-14T11:31:05;101057.63;;;27.70;34.14
48553;BME280;34335;51.566;6.994;2023-06-14T11:33:30;101062.50;;;27.50;34.82
48553;BME280;34335;51.566;6.994;2023-06-14T11:35:56;101057.06;;;27.24;34.85
48553;BME280;34335;51.566;6.994;2023-06-14T11:38:21;101048.22;;;27.09;35.38
48553;BME280;34335;51.566;6.994;2023-06-14T11:40:47;101048.00;;;27.80;34.57
48553;BME280;34335;51.566;6.994;2023-06-14T11:43:12;101047.69;;;27.97;34.79
48553;BME280;34335;51.566;6.994;2023-06-14T11:45:39;101059.44;;;27.14;35.24
48553;BME280;34335;51.566;6.994;2023-06-14T11:48:06;101046.47;;;27.50;35.37
48553;BME280;34335;51.566;6.994;2023-06-14T11:50:31;101048.81;;;28.08;34.93
48553;BME280;34335;51.566;6.994;2023-06-14T11:52:59;101062.56;;;28.40;34.21
48553;BME280;34335;51.566;6.994;2023-06-14T11:55:28;101068.94;;;27.73;34.39
48553;BME280;34335;51.566;6.994;2023-06-14T11:57:54;101052.53;;;27.92;34.81
48553;BME280;34335;51.566;6.994;2023-06-14T12:00:25;101061.00;;;28.12;33.69
48553;BME280;34335;51.566;6.994;2023-06-14T12:02:54;101053.09;;;28.36;33.79
48553;BME280;34335;51.566;6.994;2023-06-14T12:05:23;101068.56;;;28.44;33.04
48553;BME280;34335;51.566;6.994;2023-06-14T12:07:49;101070.72;;;28.39;33.59
48553;BME280;34335;51.566;6.994;2023-06-14T12:10:15;101066.84;;;28.43;33.62
48553;BME280;34335;51.566;6.994;2023-06-14T12:12:42;101069.63;;;28.54;33.06
48553;BME280;34335;51.566;6.994;2023-06-14T12:15:08;101051.16;;;28.88;32.72
48553;BME280;34335;51.566;6.994;2023-06-14T12:17:35;101060.50;;;28.57;32.77
48553;BME280;34335;51.566;6.994;2023-06-14T12:20:12;101054.84;;;28.74;33.43
48553;BME280;34335;51.566;6.994;2023-06-14T12:22:55;101040.84;;;28.71;32.98
48553;BME280;34335;51.566;6.994;2023-06-14T12:25:35;101046.03;;;29.10;33.11
48553;BME280;34335;51.566;6.994;2023-06-14T12:28:06;101038.06;;;28.72;32.91
48553;BME280;34335;51.566;6.994;2023-06-14T12:30:31;101048.25;;;28.91;32.62
48553;BME280;34335;51.566;6.994;2023-06-14T12:32:57;101060.66;;;28.92;33.31
48553;BME280;34335;51.566;6.994;2023-06-14T12:35:22;101048.03;;;28.95;32.38
48553;BME280;34335;51.566;6.994;2023-06-14T12:37:47;101049.19;;;29.03;32.98
48553;BME280;34335;51.566;6.994;2023-06-14T12:40:13;101056.69;;;28.98;33.29
48553;BME280;34335;51.566;6.994;2023-06-14T12:42:39;101055.66;;;29.12;32.80
48553;BME280;34335;51.566;6.994;2023-06-14T12:45:04;101052.47;;;28.83;33.30
48553;BME280;34335;51.566;6.994;2023-06-14T12:47:30;101046.50;;;29.28;32.48
48553;BME280;34335;51.566;6.994;2023-06-14T12:49:55;101040.50;;;29.37;31.37
48553;BME280;34335;51.566;6.994;2023-06-14T12:52:21;101053.31;;;29.56;31.69
48553;BME280;34335;51.566;6.994;2023-06-14T12:54:46;101056.88;;;29.68;32.46
48553;BME280;34335;51.566;6.994;2023-06-14T12:57:11;101054.16;;;29.45;31.60
48553;BME280;34335;51.566;6.994;2023-06-14T12:59:36;101054.16;;;29.45;32.08
48553;BME280;34335;51.566;6.994;2023-06-14T13:02:15;101067.63;;;29.19;31.16